Aérodrome :
LOGIN :

S'inscrire | Disclaimer

   EN    FR    IT 

 










Légende :    VFR   VFR Marginal   IFR   IFR Intensif   IFR Très Intensif
Visi : 
Plafond : 
>= 8 km
>= 3000ft
5 à 8 km
1000 à 3000 ft
1500m à 5 km
500 à 1000 ft
800 à 1500m
200 à 500 ft
< 800m
< 200 ft
Symboles :   Orages  Brouillard  Fortes neiges  Fortes précipitations  Vent > 20 kt
SIGMETs :   Divers  Orages  Givrage  Turbulence  Onde Orograph.  Cendres Volcan.







- Altitude de l'aérodrome : 220 ft
- Code IATA : CWL
- Voir les cartes d'approche


EGFF - Cardiff Rhoose

DERNIER METAR :
  • 191950Z AUTO 26012KT 9999 SCT019/// BKN027/// //////TCU 14/10 Q1013 RERA

METARs EXPIRÉS :
  • 191920Z AUTO 27013KT 4900 RA BKN015/// OVC032/// //////TCU 14/12 Q1013
  • 191850Z AUTO 26012KT 9999 -RA SCT016/// BKN022/// //////TCU 14/12 Q1013
  • 191820Z AUTO 26012KT 9999 -RA BKN018/// BKN022/// BKN028/// //////TCU 15/12 Q1013
  • 191750Z AUTO 26013KT 9999 -RA SCT025 OVC032 15/11 Q1013
  • 191720Z AUTO 27013KT 9999 -RA BKN025 BKN038 15/12 Q1013

TAF TAF EGFF
Valide du 19 à 18h jusqu'au 20 à 18h UTC


191701Z 1918/2018 27017KT 9999 BKN018
PROB30 1918/1920 4500 DZ BKN010
BECMG 1920/1923 21007KT 7000 -RADZ SCT008 BKN012
TEMPO 1921/2006 4000 RA BKN006
BECMG 2003/2006 21015G25KT
PROB30
TEMPO 2012/2018 21025G38KT
TEMPO 2015/2018 9999 NSW SCT016
ATIS : +44 1446 729 319
Pas de NOTAMs connus pour ce terrain.
2 SIGMETs publiés pour la FIR London (EGTT) :
 
Turbulence forte
EGTT SIGMET 13 VALID 191800/192100 EGRR
EGTT LONDON FIR SEV TURB FCST NW OF LINE N5347 W00530 - N5500 E00440 SFC/FL060 MOV N 10KT WKN=
Onde orographique forte
EGTT SIGMET 12 VALID 191700/192100 EGRR
EGTT LONDON FIR SEV MTW FCST WI N5500 W00530 - N5500 W00100 - N5500 E00020 - N5312 E00223 - N5147 W00338 - N5239 W00530 - N5500 W00530 FL030/250 STNR NC=



MET'MAP, la Météo Aéronautique d'un coup d'oeil ! - Copyright ORBIFLY Décembre 2007 - Disclaimer

ORBIFLY MET'MAP TEAM :

Programmation & Développement : Alexandra Zaïnal
Conception & Développement : Baudouin d'Aumeries
Co-Programmation & Développement : Marc-Olivier Méhu
Soutien technique & logistique : Manuel Goepfert

Contact : metmap@orbifly.com




SOURCES & CREDITS :

   NOAA